Time;durP1;ratioP1;P1;durP2;ratioP2;P2;SDS_P1;SDS_P2;PMS_P1;PMS_P2;Temp;Humidity;BMP_temperature;BMP_pressure;BME280_temperature;BME280_humidity;BME280_pressure;Samples;Min_cycle;Max_cycle;Signal;HPM_P1;HPM_P2
2023/08/16 00:01:16;;;;;;;2.20;2.10;;;23.90;52.30;;;;;;5044098;28;20225;-79
2023/08/16 00:03:42;;;;;;;2.23;2.13;;;23.80;52.30;;;;;;5026476;28;20446;-79
2023/08/16 00:06:12;;;;;;;2.03;1.93;;;23.90;52.40;;;;;;5045833;28;20467;-80
2023/08/16 00:08:38;;;;;;;2.57;2.47;;;23.80;52.30;;;;;;5046160;28;20439;-79
2023/08/16 00:11:04;;;;;;;2.20;2.00;;;23.80;52.30;;;;;;5043002;28;20505;-79
2023/08/16 00:13:30;;;;;;;2.37;2.27;;;23.80;52.30;;;;;;5044757;28;20538;-80
2023/08/16 00:15:56;;;;;;;2.03;1.93;;;23.90;52.40;;;;;;5025133;28;20242;-79
2023/08/16 00:18:22;;;;;;;2.30;2.20;;;23.90;52.40;;;;;;5041845;28;20964;-80
2023/08/16 00:20:47;;;;;;;2.40;2.30;;;23.80;52.30;;;;;;5044299;28;20292;-79
2023/08/16 00:23:13;;;;;;;2.40;2.20;;;23.80;52.30;;;;;;5044981;28;20236;-79
2023/08/16 00:25:39;;;;;;;2.00;1.90;;;23.80;52.30;;;;;;5036937;28;20291;-79
2023/08/16 00:28:05;;;;;;;2.30;2.20;;;23.80;52.30;;;;;;5022975;28;20279;-80
2023/08/16 00:30:31;;;;;;;2.40;2.30;;;23.80;52.30;;;;;;5044398;28;20470;-79
2023/08/16 00:32:56;;;;;;;2.30;2.10;;;23.80;52.30;;;;;;5044027;28;20233;-79
2023/08/16 00:35:22;;;;;;;2.00;1.90;;;23.80;52.30;;;;;;5024960;28;20957;-80
2023/08/16 00:37:47;;;;;;;2.37;2.27;;;23.80;52.30;;;;;;5044715;28;20271;-79
2023/08/16 00:40:15;;;;;;;2.57;2.47;;;23.80;52.30;;;;;;5025531;28;20226;-79
2023/08/16 00:42:41;;;;;;;2.30;2.20;;;23.80;52.30;;;;;;5026570;28;20229;-80
2023/08/16 00:45:07;;;;;;;2.50;2.40;;;23.80;52.40;;;;;;5023034;28;21057;-80
2023/08/16 00:47:34;;;;;;;2.40;2.30;;;23.80;52.40;;;;;;5019360;28;20756;-79
2023/08/16 00:50:00;;;;;;;2.27;2.17;;;23.80;52.40;;;;;;5015921;28;20229;-79
2023/08/16 00:52:26;;;;;;;2.03;1.93;;;23.80;52.40;;;;;;5044663;28;20437;-76
2023/08/16 00:54:52;;;;;;;2.27;2.17;;;23.80;52.40;;;;;;5039430;28;20705;-76
2023/08/16 00:57:17;;;;;;;2.23;2.10;;;23.80;52.30;;;;;;5026123;28;20692;-76
2023/08/16 00:59:44;;;;;;;2.20;2.10;;;23.80;52.40;;;;;;5021095;28;20457;-76
2023/08/16 01:02:10;;;;;;;2.20;2.10;;;23.80;52.30;;;;;;5018513;28;20229;-76
2023/08/16 01:04:36;;;;;;;1.80;1.70;;;23.80;52.30;;;;;;5020235;28;21002;-76
2023/08/16 01:07:01;;;;;;;2.20;2.10;;;23.80;52.40;;;;;;5038963;28;20226;-76
2023/08/16 01:09:27;;;;;;;2.23;2.13;;;23.80;52.40;;;;;;5017370;28;20297;-76
2023/08/16 01:12:12;;;;;;;2.10;2.00;;;23.80;52.40;;;;;;5041061;28;20216;-76
2023/08/16 01:14:59;;;;;;;2.30;2.20;;;23.80;52.40;;;;;;5026411;28;20482;-75
2023/08/16 01:17:25;;;;;;;2.10;2.00;;;23.80;52.40;;;;;;5038983;28;20455;-75
2023/08/16 01:19:55;;;;;;;2.30;2.20;;;23.80;52.50;;;;;;5043037;28;20862;-76
2023/08/16 01:22:58;;;;;;;1.80;1.70;;;23.80;52.40;;;;;;5002682;28;1081358;-76
2023/08/16 01:25:47;;;;;;;1.90;1.80;;;23.80;52.50;;;;;;5034517;28;20951;-76
2023/08/16 01:28:14;;;;;;;2.17;2.07;;;23.80;52.50;;;;;;5042502;28;20451;-76
2023/08/16 01:30:41;;;;;;;2.37;2.27;;;23.80;52.50;;;;;;5044838;28;20501;-76
2023/08/16 01:33:10;;;;;;;2.40;2.30;;;23.80;52.50;;;;;;5026030;28;20597;-75
2023/08/16 01:35:36;;;;;;;2.33;2.23;;;23.80;52.60;;;;;;5026508;28;20482;-76
2023/08/16 01:38:03;;;;;;;2.43;2.33;;;23.80;52.50;;;;;;5042145;28;20486;-76
2023/08/16 01:40:50;;;;;;;2.00;1.90;;;23.80;52.50;;;;;;5027289;28;20549;-76
2023/08/16 01:43:16;;;;;;;2.20;2.10;;;23.80;52.50;;;;;;5040602;28;20459;-75
2023/08/16 01:45:43;;;;;;;2.00;1.90;;;23.80;52.50;;;;;;5034989;28;20477;-76
2023/08/16 01:48:11;;;;;;;2.10;2.00;;;23.80;52.60;;;;;;5017516;28;20333;-76
2023/08/16 01:50:36;;;;;;;2.43;2.33;;;23.80;52.60;;;;;;5044984;28;20447;-75
2023/08/16 01:53:02;;;;;;;2.10;2.00;;;23.80;52.50;;;;;;5022590;28;21008;-76
2023/08/16 01:55:28;;;;;;;2.17;2.07;;;23.80;52.50;;;;;;5036234;28;20221;-76
2023/08/16 01:57:53;;;;;;;2.37;2.27;;;23.80;52.50;;;;;;5042796;28;20230;-76
2023/08/16 02:00:19;;;;;;;2.07;1.97;;;23.80;52.60;;;;;;5026693;28;20210;-76
2023/08/16 02:02:44;;;;;;;2.27;2.17;;;23.80;52.60;;;;;;5040256;28;20576;-78
2023/08/16 02:05:10;;;;;;;2.20;2.10;;;23.80;52.50;;;;;;5042637;28;20269;-78
2023/08/16 02:07:36;;;;;;;2.20;2.10;;;23.80;52.60;;;;;;5044342;28;20591;-78
2023/08/16 02:10:01;;;;;;;2.50;2.30;;;23.80;52.50;;;;;;5040434;28;20228;-78
2023/08/16 02:12:27;;;;;;;2.50;2.30;;;23.80;52.60;;;;;;5020125;28;20226;-76
2023/08/16 02:14:52;;;;;;;2.43;2.33;;;23.80;52.60;;;;;;5023262;28;20221;-78
2023/08/16 02:17:18;;;;;;;2.20;2.10;;;23.80;52.60;;;;;;5044935;28;20226;-78
2023/08/16 02:19:44;;;;;;;2.03;1.93;;;23.80;52.60;;;;;;5043115;28;20705;-78
2023/08/16 02:22:09;;;;;;;2.00;1.90;;;23.80;52.60;;;;;;5024262;28;20704;-78
2023/08/16 02:24:35;;;;;;;2.20;2.10;;;23.80;52.60;;;;;;5025139;28;20230;-78
2023/08/16 02:27:00;;;;;;;2.33;2.23;;;23.80;52.60;;;;;;5040230;28;20229;-78
2023/08/16 02:29:26;;;;;;;2.00;1.90;;;23.80;52.60;;;;;;5043074;28;20214;-78
2023/08/16 02:31:51;;;;;;;2.20;2.10;;;23.80;52.60;;;;;;5019437;28;20272;-77
2023/08/16 02:34:17;;;;;;;1.90;1.80;;;23.80;52.60;;;;;;5042681;28;20225;-77
2023/08/16 02:36:42;;;;;;;2.27;2.17;;;23.80;52.60;;;;;;5036280;28;20229;-78
2023/08/16 02:39:08;;;;;;;2.23;2.13;;;23.80;52.60;;;;;;5046342;28;20226;-78
2023/08/16 02:41:35;;;;;;;2.37;2.27;;;23.80;52.60;;;;;;5042958;28;20236;-78
2023/08/16 02:44:00;;;;;;;1.93;1.83;;;23.80;52.60;;;;;;5044243;28;20853;-78
2023/08/16 02:46:26;;;;;;;2.37;2.27;;;23.80;52.60;;;;;;5022979;28;20447;-78
2023/08/16 02:48:51;;;;;;;2.13;2.03;;;23.80;52.60;;;;;;5043001;28;20692;-78
2023/08/16 02:51:17;;;;;;;2.10;2.00;;;23.80;52.60;;;;;;5023456;28;20282;-78
2023/08/16 02:53:43;;;;;;;2.20;2.10;;;23.80;52.70;;;;;;5041770;28;20220;-77
2023/08/16 02:56:08;;;;;;;2.17;1.97;;;23.80;52.70;;;;;;5040679;28;20225;-78
2023/08/16 02:58:34;;;;;;;2.00;1.90;;;23.80;52.70;;;;;;5025872;28;20218;-78
2023/08/16 03:00:59;;;;;;;2.27;2.17;;;23.70;52.50;;;;;;5022582;28;20651;-78
2023/08/16 03:03:25;;;;;;;2.00;1.90;;;23.80;52.60;;;;;;5025180;28;20218;-78
2023/08/16 03:05:50;;;;;;;2.20;2.10;;;23.80;52.60;;;;;;5022716;28;20234;-75
2023/08/16 03:08:16;;;;;;;2.27;2.17;;;23.80;52.60;;;;;;5042099;28;20233;-78
2023/08/16 03:10:41;;;;;;;2.50;2.33;;;23.80;52.60;;;;;;5022928;28;20611;-78
2023/08/16 03:13:08;;;;;;;2.10;2.00;;;23.80;52.70;;;;;;5035128;28;20213;-75
2023/08/16 03:15:34;;;;;;;2.40;2.30;;;23.80;52.60;;;;;;5027478;28;20595;-76
2023/08/16 03:17:59;;;;;;;2.10;2.00;;;23.70;52.60;;;;;;5040569;28;20459;-76
2023/08/16 03:20:25;;;;;;;2.13;2.03;;;23.80;52.60;;;;;;5040756;28;20222;-76
2023/08/16 03:22:50;;;;;;;2.07;1.97;;;23.70;52.60;;;;;;5022285;28;20582;-76
2023/08/16 03:25:17;;;;;;;2.17;2.07;;;23.70;52.50;;;;;;5038692;28;20230;-75
2023/08/16 03:27:42;;;;;;;2.00;1.90;;;23.70;52.60;;;;;;5035363;28;20227;-75
2023/08/16 03:30:08;;;;;;;2.17;2.07;;;23.80;52.70;;;;;;5041073;28;20818;-75
2023/08/16 03:32:34;;;;;;;1.93;1.83;;;23.70;52.60;;;;;;5039249;28;20322;-76
2023/08/16 03:35:00;;;;;;;2.13;2.03;;;23.80;52.70;;;;;;5021458;28;22127;-76
2023/08/16 03:37:25;;;;;;;2.23;2.13;;;23.70;52.50;;;;;;5018522;28;20761;-75
2023/08/16 03:39:52;;;;;;;1.90;1.80;;;23.80;52.70;;;;;;5035555;28;20229;-76
2023/08/16 03:42:17;;;;;;;2.20;2.10;;;23.70;52.60;;;;;;5034860;28;20232;-76
2023/08/16 03:44:43;;;;;;;2.20;2.10;;;23.70;52.60;;;;;;5035114;28;20467;-76
2023/08/16 03:47:09;;;;;;;2.20;2.10;;;23.70;52.60;;;;;;5038681;28;20230;-75
2023/08/16 03:49:35;;;;;;;2.20;2.10;;;23.70;52.70;;;;;;5040351;28;20268;-75
2023/08/16 03:52:00;;;;;;;2.07;1.97;;;23.70;52.70;;;;;;5041264;28;20459;-75
2023/08/16 03:54:26;;;;;;;2.33;2.23;;;23.70;52.60;;;;;;5025316;28;20224;-76
2023/08/16 03:56:51;;;;;;;2.47;2.37;;;23.70;52.60;;;;;;5042820;28;20308;-75
2023/08/16 03:59:17;;;;;;;2.73;2.53;;;23.70;52.60;;;;;;5041746;28;20344;-75
2023/08/16 04:01:43;;;;;;;2.60;2.50;;;23.70;52.60;;;;;;5025920;28;20556;-76
2023/08/16 04:04:08;;;;;;;2.10;2.00;;;23.70;52.60;;;;;;5026691;28;20298;-76
2023/08/16 04:06:34;;;;;;;2.03;1.93;;;23.70;52.60;;;;;;5040690;28;21457;-76
2023/08/16 04:08:59;;;;;;;2.10;2.00;;;23.70;52.60;;;;;;5041810;28;20216;-75
2023/08/16 04:11:25;;;;;;;2.23;2.13;;;23.70;52.70;;;;;;5042490;28;20292;-75
2023/08/16 04:13:50;;;;;;;2.73;2.57;;;23.70;52.60;;;;;;5045366;28;20652;-74
2023/08/16 04:16:16;;;;;;;2.30;2.20;;;23.70;52.70;;;;;;5041870;28;20229;-74
2023/08/16 04:18:41;;;;;;;2.30;2.20;;;23.70;52.70;;;;;;5041539;28;20245;-75
2023/08/16 04:21:07;;;;;;;1.90;1.80;;;23.70;52.60;;;;;;5040679;28;20237;-74
2023/08/16 04:23:32;;;;;;;2.20;2.10;;;23.70;52.60;;;;;;5044245;28;20218;-75
2023/08/16 04:25:58;;;;;;;2.00;1.90;;;23.70;52.60;;;;;;5042202;28;20236;-74
2023/08/16 04:28:23;;;;;;;2.03;1.93;;;23.80;52.60;;;;;;5042695;28;20690;-75
2023/08/16 04:30:49;;;;;;;2.50;2.40;;;23.80;52.60;;;;;;5036285;28;20673;-75
2023/08/16 04:33:14;;;;;;;2.20;2.10;;;23.80;52.60;;;;;;5041159;28;20213;-75
2023/08/16 04:35:40;;;;;;;2.60;2.40;;;23.80;52.50;;;;;;5041559;28;20279;-74
2023/08/16 04:38:06;;;;;;;1.97;1.87;;;23.80;52.50;;;;;;5040010;28;20560;-74
2023/08/16 04:40:32;;;;;;;2.10;2.00;;;23.80;52.50;;;;;;5040671;28;20694;-75
2023/08/16 04:42:57;;;;;;;2.80;2.60;;;23.80;52.40;;;;;;5043456;28;20225;-80
2023/08/16 04:45:23;;;;;;;2.43;2.30;;;23.80;52.30;;;;;;5040173;28;20234;-75
2023/08/16 04:47:48;;;;;;;2.13;2.03;;;23.80;52.40;;;;;;5034066;28;20707;-73
2023/08/16 04:50:14;;;;;;;2.00;1.90;;;23.80;52.30;;;;;;5038134;28;20670;-74
2023/08/16 04:52:39;;;;;;;2.20;2.10;;;23.80;52.30;;;;;;5041457;28;20213;-73
2023/08/16 04:55:06;;;;;;;2.20;2.10;;;23.80;52.30;;;;;;5041525;28;20218;-74
2023/08/16 04:57:31;;;;;;;2.10;2.00;;;23.80;52.30;;;;;;5040999;28;20226;-74
2023/08/16 04:59:57;;;;;;;2.40;2.30;;;23.80;52.30;;;;;;5043953;28;21023;-74
2023/08/16 05:02:22;;;;;;;2.13;2.03;;;23.80;52.30;;;;;;5041925;28;20230;-74
2023/08/16 05:04:48;;;;;;;2.30;2.20;;;23.80;52.30;;;;;;5045647;28;20659;-74
2023/08/16 05:07:14;;;;;;;2.00;1.90;;;23.80;52.20;;;;;;5018445;28;20226;-74
2023/08/16 05:09:39;;;;;;;2.00;1.90;;;23.80;52.30;;;;;;5027862;28;20229;-75
2023/08/16 05:12:05;;;;;;;9.63;2.03;;;23.80;52.30;;;;;;5035564;28;20232;-74
2023/08/16 05:14:30;;;;;;;1.93;1.83;;;23.80;52.30;;;;;;5034865;28;20272;-74
2023/08/16 05:16:56;;;;;;;2.13;2.03;;;23.80;52.30;;;;;;5041792;28;20253;-73
2023/08/16 05:19:22;;;;;;;1.90;1.80;;;23.80;52.30;;;;;;5035687;28;20250;-74
2023/08/16 05:21:47;;;;;;;2.23;2.13;;;23.80;52.30;;;;;;5035483;28;20291;-76
2023/08/16 05:24:13;;;;;;;2.30;2.20;;;23.80;52.30;;;;;;5038346;28;20229;-76
2023/08/16 05:26:38;;;;;;;2.27;2.17;;;23.80;52.30;;;;;;5021030;28;20238;-79
2023/08/16 05:29:04;;;;;;;1.97;1.87;;;23.80;52.30;;;;;;5041233;28;20546;-75
2023/08/16 05:31:29;;;;;;;1.93;1.83;;;23.80;52.30;;;;;;5042153;28;20290;-75
2023/08/16 05:33:55;;;;;;;2.47;2.37;;;23.80;52.30;;;;;;5024986;28;20698;-73
2023/08/16 05:36:20;;;;;;;2.00;1.90;;;23.80;52.30;;;;;;5034880;28;20230;-74
2023/08/16 05:38:46;;;;;;;2.23;2.13;;;23.80;52.40;;;;;;5041384;28;20226;-74
2023/08/16 05:41:11;;;;;;;2.53;2.43;;;23.80;52.30;;;;;;5039944;28;20222;-74
2023/08/16 05:43:37;;;;;;;2.07;1.97;;;23.80;52.30;;;;;;5044405;28;20222;-74
2023/08/16 05:46:03;;;;;;;2.00;1.90;;;23.80;52.30;;;;;;5026002;28;20299;-73
2023/08/16 05:48:28;;;;;;;2.00;1.90;;;23.80;52.30;;;;;;5046510;28;20381;-74
2023/08/16 05:50:54;;;;;;;2.00;1.90;;;23.80;52.30;;;;;;5041735;28;20218;-74
2023/08/16 05:53:19;;;;;;;2.27;2.17;;;23.80;52.30;;;;;;5045578;28;20685;-75
2023/08/16 05:55:45;;;;;;;2.77;2.17;;;23.80;52.40;;;;;;5044135;28;20601;-74
2023/08/16 05:58:10;;;;;;;2.00;1.90;;;23.80;52.30;;;;;;5026326;28;20591;-75
2023/08/16 06:00:36;;;;;;;2.33;2.10;;;23.80;52.30;;;;;;5042730;28;20701;-74
2023/08/16 06:03:02;;;;;;;2.27;2.17;;;23.80;52.30;;;;;;5037824;28;20213;-75
2023/08/16 06:05:27;;;;;;;4.17;2.23;;;23.80;52.30;;;;;;5022669;28;20692;-75
2023/08/16 06:07:54;;;;;;;2.10;2.00;;;23.80;52.40;;;;;;5020178;28;20225;-74
2023/08/16 06:10:19;;;;;;;2.70;2.50;;;23.80;52.30;;;;;;5041405;28;20225;-73
2023/08/16 06:12:45;;;;;;;4.30;2.00;;;23.80;52.30;;;;;;5042355;28;20453;-74
2023/08/16 06:15:14;;;;;;;1.80;1.70;;;23.80;52.30;;;;;;5043745;28;20225;-75
2023/08/16 06:17:40;;;;;;;2.10;2.00;;;23.80;52.30;;;;;;5044372;28;20237;-74
2023/08/16 06:20:10;;;;;;;2.07;1.97;;;23.80;52.40;;;;;;5035916;28;20498;-75
2023/08/16 06:22:37;;;;;;;2.00;1.90;;;23.80;52.30;;;;;;5036647;28;21858;-75
2023/08/16 06:25:04;;;;;;;2.20;2.10;;;23.80;52.30;;;;;;5039423;28;20536;-74
2023/08/16 06:27:30;;;;;;;4.23;2.27;;;23.80;52.40;;;;;;5023495;28;20825;-75
2023/08/16 06:29:56;;;;;;;2.17;2.07;;;23.80;52.30;;;;;;5040923;28;20447;-74
2023/08/16 06:32:21;;;;;;;2.20;2.00;;;23.80;52.30;;;;;;5041207;28;20218;-74
2023/08/16 06:34:47;;;;;;;2.20;2.10;;;23.80;52.30;;;;;;5044017;28;20746;-76
2023/08/16 06:37:12;;;;;;;2.30;2.20;;;23.80;52.30;;;;;;5023383;28;20279;-76
2023/08/16 06:39:39;;;;;;;2.37;2.13;;;23.80;52.30;;;;;;5025892;28;20314;-75
2023/08/16 06:42:05;;;;;;;1.77;1.67;;;23.80;52.30;;;;;;5041306;28;20283;-76
2023/08/16 06:44:30;;;;;;;2.10;2.00;;;23.80;52.40;;;;;;5025759;28;20459;-76
2023/08/16 06:46:56;;;;;;;2.60;2.40;;;23.80;52.40;;;;;;5027907;28;20439;-76
2023/08/16 06:49:21;;;;;;;1.90;1.80;;;23.80;52.40;;;;;;5026077;28;20226;-76
2023/08/16 06:51:47;;;;;;;2.17;2.07;;;23.80;52.30;;;;;;5025021;28;20312;-77
2023/08/16 06:54:12;;;;;;;2.33;2.23;;;23.80;52.30;;;;;;5044766;28;20359;-76
2023/08/16 06:56:38;;;;;;;2.10;2.00;;;23.80;52.40;;;;;;5041588;28;20241;-76
2023/08/16 06:59:04;;;;;;;2.00;1.90;;;23.80;52.30;;;;;;5041163;28;20225;-76
2023/08/16 07:01:30;;;;;;;2.03;1.93;;;23.80;52.50;;;;;;5037106;28;20232;-76
2023/08/16 07:03:56;;;;;;;2.20;2.10;;;23.80;52.40;;;;;;5026875;28;20478;-76
2023/08/16 07:06:21;;;;;;;2.20;2.10;;;23.80;52.40;;;;;;5040633;28;20584;-76
2023/08/16 07:08:47;;;;;;;2.60;2.50;;;23.80;52.30;;;;;;5025724;28;20249;-76
2023/08/16 07:11:12;;;;;;;2.23;2.13;;;23.80;52.30;;;;;;5024505;28;20213;-76
2023/08/16 07:13:38;;;;;;;2.60;2.50;;;23.80;52.30;;;;;;5027362;28;20716;-76
2023/08/16 07:16:03;;;;;;;2.60;2.40;;;23.80;52.30;;;;;;5043580;28;20308;-76
2023/08/16 07:18:29;;;;;;;3.13;2.93;;;23.80;52.40;;;;;;5026272;28;20252;-76
2023/08/16 07:20:54;;;;;;;3.03;2.93;;;23.80;52.30;;;;;;5020686;28;20210;-76
2023/08/16 07:23:20;;;;;;;2.67;2.53;;;23.80;52.40;;;;;;5043152;28;20218;-76
2023/08/16 07:25:45;;;;;;;2.60;2.50;;;23.80;52.40;;;;;;5024058;28;20275;-77
2023/08/16 07:28:11;;;;;;;2.40;2.30;;;23.80;52.30;;;;;;5038983;28;20708;-76
2023/08/16 07:30:37;;;;;;;2.53;2.43;;;23.90;52.40;;;;;;5023564;28;20221;-77
2023/08/16 07:33:04;;;;;;;2.73;2.53;;;23.80;52.30;;;;;;5044014;28;20575;-77
2023/08/16 07:35:30;;;;;;;2.57;2.47;;;23.80;52.30;;;;;;5042962;28;20478;-77
2023/08/16 07:37:56;;;;;;;2.10;2.00;;;23.80;52.30;;;;;;5023291;28;20463;-76
2023/08/16 07:40:22;;;;;;;3.00;2.80;;;23.90;52.40;;;;;;5042766;28;20301;-77
2023/08/16 07:42:47;;;;;;;2.43;2.23;;;23.90;52.40;;;;;;5022376;28;20230;-77
2023/08/16 07:45:13;;;;;;;2.90;2.73;;;23.90;52.40;;;;;;5043487;28;20241;-76
2023/08/16 07:47:39;;;;;;;2.17;2.07;;;23.90;52.40;;;;;;5022549;28;20215;-77
2023/08/16 07:50:05;;;;;;;2.73;2.53;;;23.90;52.40;;;;;;5025275;28;20267;-77
2023/08/16 07:52:30;;;;;;;3.23;3.03;;;23.90;52.40;;;;;;5025062;28;20299;-79
2023/08/16 07:54:56;;;;;;;2.73;2.53;;;23.90;52.40;;;;;;5037664;28;20232;-79
2023/08/16 07:57:21;;;;;;;2.37;2.27;;;23.90;52.30;;;;;;5023554;28;20222;-80
2023/08/16 07:59:47;;;;;;;2.27;2.17;;;23.90;52.40;;;;;;5044503;28;20574;-79
2023/08/16 08:02:12;;;;;;;2.57;2.30;;;23.90;52.40;;;;;;5041333;28;20226;-78
2023/08/16 08:04:38;;;;;;;2.67;2.57;;;23.90;52.40;;;;;;5042146;28;20234;-79
2023/08/16 08:07:04;;;;;;;2.77;2.67;;;23.90;52.40;;;;;;5023283;28;20223;-79
2023/08/16 08:09:31;;;;;;;2.50;2.40;;;23.90;52.40;;;;;;5041756;28;20455;-79
2023/08/16 08:11:57;;;;;;;2.70;2.47;;;23.90;52.40;;;;;;5037619;28;20249;-78
2023/08/16 08:14:22;;;;;;;2.63;2.43;;;23.90;52.40;;;;;;5040681;28;20463;-79
2023/08/16 08:16:49;;;;;;;3.03;2.83;;;23.90;52.40;;;;;;5042855;28;20558;-78
2023/08/16 08:19:14;;;;;;;2.80;2.60;;;23.90;52.40;;;;;;5044856;28;20253;-79
2023/08/16 08:21:40;;;;;;;3.63;2.73;;;23.90;53.20;;;;;;5024909;28;20613;-81
2023/08/16 08:24:06;;;;;;;2.50;2.30;;;23.90;52.40;;;;;;5025997;28;20284;-81
2023/08/16 08:26:31;;;;;;;3.17;2.97;;;23.90;52.40;;;;;;5027879;28;20218;-79
2023/08/16 08:28:57;;;;;;;2.80;2.70;;;23.90;52.40;;;;;;5047962;28;20260;-79
2023/08/16 08:31:23;;;;;;;2.93;2.83;;;23.90;52.40;;;;;;5022580;28;20214;-79
2023/08/16 08:33:48;;;;;;;2.67;2.57;;;23.90;52.50;;;;;;5040181;28;20265;-79
2023/08/16 08:36:14;;;;;;;2.83;2.73;;;23.90;52.40;;;;;;5046430;28;20241;-79
2023/08/16 08:38:41;;;;;;;3.33;3.13;;;23.90;52.40;;;;;;5044391;28;20699;-79
2023/08/16 08:41:06;;;;;;;2.93;2.77;;;23.90;52.40;;;;;;5045163;28;20263;-79
2023/08/16 08:43:36;;;;;;;3.00;2.90;;;23.90;52.40;;;;;;5044601;28;20977;-79
2023/08/16 08:46:04;;;;;;;3.40;3.20;;;23.90;52.40;;;;;;5043958;28;20307;-79
2023/08/16 08:48:29;;;;;;;3.50;3.30;;;23.90;52.40;;;;;;5044307;28;20455;-79
2023/08/16 08:50:56;;;;;;;2.97;2.87;;;23.90;52.40;;;;;;5025819;28;20458;-80
2023/08/16 08:53:23;;;;;;;3.50;3.30;;;23.90;52.40;;;;;;5029425;28;20213;-79
2023/08/16 08:55:53;;;;;;;3.60;3.40;;;23.90;52.40;;;;;;5044366;28;20494;-79
2023/08/16 08:58:20;;;;;;;2.77;2.57;;;23.90;52.50;;;;;;5043712;28;20450;-79
2023/08/16 09:00:46;;;;;;;3.43;3.23;;;23.90;52.50;;;;;;5022738;28;20527;-79
2023/08/16 09:03:15;;;;;;;3.03;2.83;;;23.90;52.40;;;;;;5044277;28;20567;-79
2023/08/16 09:05:41;;;;;;;4.30;4.00;;;23.90;53.30;;;;;;5027414;28;20458;-79
2023/08/16 09:08:09;;;;;;;3.23;3.10;;;23.90;52.40;;;;;;5044217;28;20471;-79
2023/08/16 09:10:37;;;;;;;3.80;3.20;;;23.90;52.50;;;;;;5044106;28;21208;-79
2023/08/16 09:13:04;;;;;;;3.47;3.27;;;23.90;52.50;;;;;;5046115;28;20490;-79
2023/08/16 09:15:30;;;;;;;3.70;3.50;;;23.90;52.50;;;;;;5041764;28;20468;-79
2023/08/16 09:18:14;;;;;;;4.30;4.10;;;23.90;52.50;;;;;;5044106;28;20458;-79
2023/08/16 09:20:42;;;;;;;3.13;3.00;;;23.90;52.50;;;;;;5043128;28;20310;-79
2023/08/16 09:23:14;;;;;;;3.50;3.30;;;23.90;53.30;;;;;;5024868;28;20922;-79
2023/08/16 09:25:41;;;;;;;3.17;3.07;;;23.80;52.40;;;;;;5041415;28;20978;-79
2023/08/16 09:28:10;;;;;;;3.80;3.57;;;23.90;52.50;;;;;;5026893;28;20516;-79
2023/08/16 09:30:36;;;;;;;3.70;3.50;;;23.90;52.50;;;;;;5021655;28;20554;-79
2023/08/16 09:33:02;;;;;;;3.13;3.03;;;23.80;52.50;;;;;;5043685;28;20537;-79
2023/08/16 09:35:32;;;;;;;3.83;3.63;;;23.90;52.50;;;;;;5023482;28;20998;-80
2023/08/16 09:37:59;;;;;;;4.00;3.80;;;23.90;52.50;;;;;;5024274;28;20232;-79
2023/08/16 09:40:25;;;;;;;3.77;3.57;;;23.90;52.60;;;;;;5046505;28;20462;-79
2023/08/16 09:42:52;;;;;;;4.23;4.03;;;23.90;52.50;;;;;;5044878;28;20482;-79
2023/08/16 09:45:34;;;;;;;4.73;4.37;;;23.90;52.50;;;;;;5021366;28;20261;-79
2023/08/16 09:48:00;;;;;;;3.60;3.40;;;23.90;52.50;;;;;;5039098;28;20459;-79
2023/08/16 09:50:28;;;;;;;3.73;3.53;;;23.90;52.60;;;;;;5036528;28;20463;-78
2023/08/16 09:52:53;;;;;;;3.40;3.27;;;23.90;52.60;;;;;;5037719;28;21308;-79
2023/08/16 09:55:25;;;;;;;3.70;3.50;;;23.80;52.50;;;;;;5045944;28;20497;-79
2023/08/16 09:57:51;;;;;;;3.90;3.70;;;23.90;52.50;;;;;;5044202;28;20218;-79
2023/08/16 10:00:17;;;;;;;3.60;3.40;;;23.80;52.50;;;;;;5040636;28;20529;-79
2023/08/16 10:02:46;;;;;;;3.70;3.50;;;23.90;52.60;;;;;;5043130;28;20221;-79
2023/08/16 10:05:13;;;;;;;4.20;4.00;;;23.90;52.70;;;;;;5042207;28;20517;-80
2023/08/16 10:07:40;;;;;;;3.60;3.40;;;23.90;52.60;;;;;;5035906;28;20471;-80
2023/08/16 10:10:09;;;;;;;4.07;3.77;;;23.90;52.50;;;;;;5024483;28;20475;-80
2023/08/16 10:12:36;;;;;;;3.97;3.77;;;23.90;52.50;;;;;;5043513;28;21021;-80
2023/08/16 10:15:03;;;;;;;4.20;4.00;;;23.90;52.60;;;;;;5040502;28;20449;-80
2023/08/16 10:17:28;;;;;;;3.90;3.70;;;23.90;52.60;;;;;;5041954;28;20459;-79
2023/08/16 10:19:59;;;;;;;4.30;4.00;;;23.90;52.60;;;;;;5025659;28;20808;-79
2023/08/16 10:22:30;;;;;;;4.40;4.20;;;23.90;52.60;;;;;;5040015;28;20316;-78
2023/08/16 10:24:57;;;;;;;4.40;4.20;;;23.90;52.60;;;;;;5039651;28;20502;-79
2023/08/16 10:27:24;;;;;;;4.50;4.30;;;23.90;52.60;;;;;;5040907;28;20463;-79
2023/08/16 10:29:56;;;;;;;4.47;4.27;;;23.90;52.60;;;;;;5040806;28;20463;-79
2023/08/16 10:32:24;;;;;;;4.90;4.60;;;23.90;52.60;;;;;;5021084;28;20455;-79
2023/08/16 10:34:54;;;;;;;4.47;4.17;;;23.90;52.60;;;;;;5024746;28;21019;-79
2023/08/16 10:37:21;;;;;;;4.03;3.80;;;23.80;52.50;;;;;;5044718;28;20524;-79
2023/08/16 10:39:50;;;;;;;4.20;4.00;;;23.90;52.60;;;;;;5024573;28;20477;-79
2023/08/16 10:42:15;;;;;;;4.13;3.93;;;23.90;52.60;;;;;;5043838;28;20546;-79
2023/08/16 10:44:51;;;;;;;4.50;4.30;;;23.80;52.60;;;;;;5038121;28;20475;-79
2023/08/16 10:47:29;;;;;;;4.23;4.03;;;23.90;52.60;;;;;;5039908;28;20727;-80
2023/08/16 10:49:56;;;;;;;4.00;3.80;;;23.90;52.60;;;;;;5022084;28;20463;-79
2023/08/16 10:52:30;;;;;;;4.33;4.10;;;23.90;53.40;;;;;;5041043;28;21038;-78
2023/08/16 10:54:59;;;;;;;4.43;4.23;;;23.90;52.60;;;;;;5042093;28;20469;-79
2023/08/16 10:57:26;;;;;;;5.03;4.77;;;23.90;52.70;;;;;;5019968;28;20475;-80
2023/08/16 11:00:09;;;;;;;4.97;4.67;;;23.90;52.60;;;;;;5038561;28;20502;-75
2023/08/16 11:02:40;;;;;;;3.97;3.77;;;23.80;52.60;;;;;;5042018;28;21349;-80
2023/08/16 11:05:14;;;;;;;4.23;4.03;;;23.80;52.70;;;;;;5043590;28;20990;-80
2023/08/16 11:07:43;;;;;;;4.40;4.20;;;23.80;52.60;;;;;;5023740;28;20467;-80
2023/08/16 11:10:08;;;;;;;4.77;4.57;;;23.80;52.60;;;;;;5041208;28;20468;-79
2023/08/16 11:12:34;;;;;;;5.37;5.10;;;23.80;52.60;;;;;;5041985;28;20509;-80
2023/08/16 11:15:00;;;;;;;4.93;4.73;;;23.80;52.70;;;;;;5022456;28;20218;-80
2023/08/16 11:17:29;;;;;;;4.93;4.63;;;23.80;52.60;;;;;;5022855;28;20312;-79
2023/08/16 11:19:55;;;;;;;4.73;4.53;;;23.90;52.70;;;;;;5038975;28;20583;-79
2023/08/16 11:22:22;;;;;;;4.40;4.20;;;23.80;52.60;;;;;;5044017;28;20467;-77
2023/08/16 11:24:50;;;;;;;4.93;4.53;;;23.80;52.60;;;;;;5024948;28;20476;-77
2023/08/16 11:27:24;;;;;;;4.57;4.37;;;23.90;52.70;;;;;;5016215;28;20513;-77
2023/08/16 11:30:00;;;;;;;5.13;4.83;;;23.80;52.60;;;;;;5039564;28;20465;-77
2023/08/16 11:32:37;;;;;;;4.43;4.23;;;23.90;52.70;;;;;;5042445;28;20443;-77
2023/08/16 11:35:07;;;;;;;4.90;4.70;;;23.80;52.60;;;;;;5043509;28;20466;-77
2023/08/16 11:37:33;;;;;;;4.87;4.67;;;23.80;52.60;;;;;;5022108;28;20459;-77
2023/08/16 11:40:07;;;;;;;5.00;4.70;;;23.80;52.70;;;;;;5041372;28;20784;-77
2023/08/16 11:42:33;;;;;;;4.70;4.50;;;23.80;52.60;;;;;;5019964;28;20467;-77
2023/08/16 11:44:59;;;;;;;5.20;4.90;;;23.80;52.60;;;;;;5024546;28;20455;-77
2023/08/16 11:47:24;;;;;;;4.50;4.30;;;23.80;52.70;;;;;;5041577;28;21099;-77
2023/08/16 11:49:50;;;;;;;4.83;4.63;;;23.80;52.70;;;;;;5044467;28;20307;-77
2023/08/16 11:52:23;;;;;;;4.63;4.43;;;23.90;52.70;;;;;;5041898;28;20225;-77
2023/08/16 11:55:07;;;;;;;5.10;4.90;;;23.90;52.70;;;;;;5034921;28;20458;-77
2023/08/16 11:57:42;;;;;;;4.50;4.30;;;23.90;52.70;;;;;;5044259;28;20592;-77
2023/08/16 12:00:08;;;;;;;5.60;5.20;;;23.90;52.70;;;;;;5021946;28;20458;-78
2023/08/16 12:02:34;;;;;;;4.90;4.70;;;23.90;52.80;;;;;;5044595;28;20505;-77
2023/08/16 12:05:08;;;;;;;5.03;4.83;;;23.90;52.70;;;;;;5045254;28;20557;-77
2023/08/16 12:07:48;;;;;;;5.03;4.80;;;23.90;52.70;;;;;;5045379;28;20228;-77
2023/08/16 12:10:27;;;;;;;4.80;4.50;;;23.90;52.70;;;;;;5027295;28;20520;-77
2023/08/16 12:12:54;;;;;;;4.77;4.57;;;23.90;52.70;;;;;;5026619;28;20438;-77
2023/08/16 12:15:27;;;;;;;4.47;4.17;;;23.90;52.80;;;;;;5026611;28;20503;-77
2023/08/16 12:17:57;;;;;;;4.70;4.50;;;23.90;52.70;;;;;;5044410;28;20463;-77
2023/08/16 12:20:26;;;;;;;4.90;4.70;;;23.90;52.80;;;;;;5043288;28;20459;-77
2023/08/16 12:22:54;;;;;;;4.63;4.33;;;23.90;52.80;;;;;;5029049;28;21032;-77
2023/08/16 12:25:19;;;;;;;4.70;4.50;;;23.90;52.70;;;;;;5026531;28;20470;-77
2023/08/16 12:27:45;;;;;;;6.00;5.50;;;23.90;52.80;;;;;;5021880;28;20814;-77
2023/08/16 12:30:11;;;;;;;5.20;4.90;;;23.90;53.60;;;;;;5043623;28;20225;-77
2023/08/16 12:32:36;;;;;;;4.97;4.77;;;23.90;52.70;;;;;;5045836;28;20308;-77
2023/08/16 12:35:02;;;;;;;5.70;5.33;;;23.90;52.70;;;;;;5031418;28;20742;-77
2023/08/16 12:37:28;;;;;;;4.77;4.57;;;23.90;52.70;;;;;;5025939;28;20949;-77
2023/08/16 12:39:53;;;;;;;5.30;5.10;;;23.90;52.70;;;;;;5029377;28;20224;-77
2023/08/16 12:42:19;;;;;;;4.60;4.40;;;23.90;52.80;;;;;;5046467;28;20749;-77
2023/08/16 12:44:44;;;;;;;5.40;5.10;;;23.90;52.80;;;;;;5038613;28;20944;-77
2023/08/16 12:47:10;;;;;;;5.30;5.00;;;23.90;52.80;;;;;;5041396;28;20226;-77